Time;durP1;ratioP1;P1;durP2;ratioP2;P2;SDS_P1;SDS_P2;PMS_P1;PMS_P2;Temp;Humidity;BMP_temperature;BMP_pressure;BME280_temperature;BME280_humidity;BME280_pressure;Samples;Min_cycle;Max_cycle;Signal;HPM_P1;HPM_P2
2021/08/03 00:02:47;;;;;;;1.47;1.37;;;14.70;99.90;14.10;96842.00;;;;5026061;28;20216;-85
2021/08/03 00:05:40;;;;;;;2.47;1.77;;;14.70;99.90;14.10;96834.00;;;;5005915;28;20665;-86
2021/08/03 00:08:35;;;;;;;1.90;1.40;;;14.60;99.90;14.20;96838.00;;;;5004146;28;20225;-86
2021/08/03 00:11:25;;;;;;;2.03;1.73;;;14.70;99.90;14.30;96844.00;;;;5012941;28;20205;-85
2021/08/03 00:14:15;;;;;;;1.97;1.60;;;14.70;99.90;14.40;96840.00;;;;5011136;28;20217;-86
2021/08/03 00:17:05;;;;;;;1.80;1.70;;;14.70;99.90;14.40;96837.00;;;;5008114;28;20205;-86
2021/08/03 00:19:55;;;;;;;2.10;1.40;;;14.80;99.90;14.40;96848.00;;;;5011464;28;20682;-85
2021/08/03 00:22:44;;;;;;;1.77;1.53;;;14.80;99.90;14.20;96840.00;;;;5011744;28;20206;-85
2021/08/03 00:25:35;;;;;;;1.50;1.20;;;14.80;99.90;14.10;96843.00;;;;5014230;28;20194;-86
2021/08/03 00:28:24;;;;;;;1.67;1.57;;;14.70;99.90;14.10;96849.00;;;;5013980;28;20272;-87
2021/08/03 00:31:17;;;;;;;1.47;1.37;;;14.70;99.90;14.10;96842.00;;;;4999525;28;20202;-86
2021/08/03 00:34:06;;;;;;;3.33;1.50;;;14.60;99.90;14.20;96836.00;;;;4993706;28;20640;-86
2021/08/03 00:36:55;;;;;;;2.10;1.90;;;14.60;99.90;14.20;96838.00;;;;5026301;28;20207;-87
2021/08/03 00:39:44;;;;;;;2.63;2.13;;;14.60;99.90;14.30;96838.00;;;;5031208;28;20197;-85
2021/08/03 00:42:35;;;;;;;1.57;1.47;;;14.70;99.90;14.10;96842.00;;;;5031621;28;20673;-85
2021/08/03 00:45:25;;;;;;;1.70;1.60;;;14.60;99.90;14.10;96843.00;;;;5030914;28;20228;-87
2021/08/03 00:48:14;;;;;;;3.63;1.87;;;14.70;99.90;14.00;96845.00;;;;5016514;28;20712;-86
2021/08/03 00:51:03;;;;;;;2.47;1.37;;;14.60;99.90;14.10;96847.00;;;;5010909;28;20202;-86
2021/08/03 00:53:52;;;;;;;1.73;1.63;;;14.60;99.90;13.90;96841.00;;;;5014693;28;20228;-85
2021/08/03 00:56:41;;;;;;;2.77;1.87;;;14.50;99.90;13.80;96838.00;;;;5031061;28;20213;-86
2021/08/03 00:59:31;;;;;;;2.73;1.47;;;14.50;99.90;13.80;96840.00;;;;5030489;28;20587;-85
2021/08/03 01:02:20;;;;;;;1.40;1.27;;;14.40;99.90;13.80;96834.00;;;;5016910;28;20217;-86
2021/08/03 01:05:10;;;;;;;1.70;1.60;;;14.40;99.90;14.00;96840.00;;;;5011210;28;20221;-87
2021/08/03 01:08:11;;;;;;;1.87;1.77;;;14.40;99.90;14.10;96836.00;;;;5011576;28;20269;-86
2021/08/03 01:11:10;;;;;;;5.63;1.83;;;14.40;99.90;14.10;96838.00;;;;5010269;28;20198;-86
2021/08/03 01:14:09;;;;;;;2.50;1.47;;;14.50;99.90;14.00;96830.00;;;;5011274;28;20226;-85
2021/08/03 01:17:08;;;;;;;4.03;1.60;;;14.50;99.90;14.00;96840.00;;;;5010020;28;20206;-85
2021/08/03 01:20:06;;;;;;;1.60;1.50;;;14.50;99.90;13.90;96834.00;;;;5007167;28;20251;-85
2021/08/03 01:23:24;;;;;;;1.50;1.40;;;14.50;99.90;14.00;96831.00;;;;4991763;28;20203;-85
2021/08/03 01:26:30;;;;;;;2.40;1.80;;;14.50;99.90;13.90;96836.00;;;;5006549;28;20765;-86
2021/08/03 01:29:23;;;;;;;1.33;1.23;;;14.50;99.90;14.00;96831.00;;;;5010616;28;20222;-85
2021/08/03 01:32:15;;;;;;;2.97;1.30;;;14.40;99.90;14.00;96830.00;;;;5010589;28;20206;-85
2021/08/03 01:35:06;;;;;;;1.80;1.70;;;14.50;99.90;13.90;96826.00;;;;5011269;28;20271;-86
2021/08/03 01:37:57;;;;;;;4.03;2.70;;;14.40;99.90;13.80;96815.00;;;;5011313;28;20251;-84
2021/08/03 01:40:49;;;;;;;5.80;1.33;;;14.40;99.90;13.80;96821.00;;;;5010150;28;20592;-85
2021/08/03 01:43:41;;;;;;;1.97;1.77;;;14.40;99.90;13.90;96819.00;;;;5010955;28;20236;-85
2021/08/03 01:46:35;;;;;;;1.87;1.63;;;14.40;99.90;13.90;96822.00;;;;5011977;28;20198;-85
2021/08/03 01:49:25;;;;;;;1.40;1.30;;;14.40;99.90;13.80;96811.00;;;;5030900;28;20217;-84
2021/08/03 01:52:16;;;;;;;1.57;1.47;;;14.40;99.90;13.70;96813.00;;;;5008678;28;20209;-85
2021/08/03 01:55:06;;;;;;;3.57;1.87;;;14.30;99.90;13.60;96815.00;;;;5024259;28;20571;-85
2021/08/03 01:57:57;;;;;;;2.53;1.33;;;14.20;99.90;13.70;96809.00;;;;5029647;28;20212;-85
2021/08/03 02:00:47;;;;;;;3.50;1.70;;;14.20;99.90;13.60;96808.00;;;;5027021;28;20209;-84
2021/08/03 02:03:39;;;;;;;1.63;1.47;;;14.20;99.90;13.60;96815.00;;;;5010718;28;20287;-86
2021/08/03 02:06:29;;;;;;;3.03;1.77;;;14.10;99.90;13.50;96811.00;;;;5010069;28;20206;-85
2021/08/03 02:09:22;;;;;;;3.63;1.50;;;14.10;99.90;13.50;96813.00;;;;5010815;28;20220;-85
2021/08/03 02:12:11;;;;;;;3.97;1.50;;;14.10;99.90;13.50;96815.00;;;;4991266;28;21058;-86
2021/08/03 02:15:01;;;;;;;4.87;1.93;;;14.10;99.90;13.40;96812.00;;;;4995841;28;20708;-86
2021/08/03 02:17:50;;;;;;;1.43;1.27;;;14.00;99.90;13.50;96814.00;;;;5010304;28;20251;-85
2021/08/03 02:20:42;;;;;;;4.47;1.60;;;14.00;99.90;13.50;96825.00;;;;5010871;28;20202;-85
2021/08/03 02:23:31;;;;;;;1.70;1.50;;;14.00;99.90;13.50;96822.00;;;;5011124;28;20229;-85
2021/08/03 02:26:20;;;;;;;1.40;1.30;;;14.00;99.90;13.50;96819.00;;;;5004300;28;20213;-85
2021/08/03 02:29:09;;;;;;;1.20;1.17;;;14.00;99.90;13.50;96829.00;;;;5031083;28;20209;-85
2021/08/03 02:32:06;;;;;;;2.20;2.00;;;14.00;99.90;13.50;96825.00;;;;5033763;28;20208;-86
2021/08/03 02:35:00;;;;;;;3.17;1.40;;;14.00;99.90;13.50;96831.00;;;;5032338;28;20658;-85
2021/08/03 02:37:57;;;;;;;5.93;1.47;;;14.00;99.90;13.50;96835.00;;;;5034204;28;20206;-87
2021/08/03 02:40:47;;;;;;;2.13;1.77;;;14.00;99.90;13.40;96838.00;;;;5033740;28;20213;-86
2021/08/03 02:43:38;;;;;;;2.00;1.60;;;13.90;99.90;13.40;96835.00;;;;5034542;28;20221;-86
2021/08/03 02:46:29;;;;;;;1.73;1.63;;;13.90;99.90;13.40;96843.00;;;;5034015;28;20739;-87
2021/08/03 02:49:27;;;;;;;1.80;1.70;;;13.90;99.90;13.40;96849.00;;;;5013612;28;20616;-86
2021/08/03 02:52:18;;;;;;;3.60;1.60;;;13.90;99.90;13.40;96845.00;;;;5014112;28;20202;-86
2021/08/03 02:55:14;;;;;;;1.60;1.50;;;13.90;99.90;13.40;96841.00;;;;5028091;28;20225;-86
2021/08/03 02:58:08;;;;;;;1.57;1.30;;;13.90;99.90;13.40;96834.00;;;;5034735;28;20205;-86
2021/08/03 03:01:01;;;;;;;2.83;2.00;;;13.90;99.90;13.30;96824.00;;;;5029948;28;20201;-86
2021/08/03 03:03:57;;;;;;;3.40;1.57;;;13.90;99.90;13.20;96816.00;;;;5013468;28;20237;-85
2021/08/03 03:06:55;;;;;;;1.90;1.70;;;13.80;99.90;13.30;96833.00;;;;5013892;28;20198;-85
2021/08/03 03:09:46;;;;;;;2.03;1.70;;;13.80;99.90;13.00;96829.00;;;;5014350;28;20229;-85
2021/08/03 03:12:38;;;;;;;1.97;1.77;;;13.70;99.90;13.00;96837.00;;;;5013584;28;20206;-86
2021/08/03 03:15:29;;;;;;;6.93;2.40;;;13.70;99.90;13.10;96838.00;;;;5012924;28;20226;-86
2021/08/03 03:18:21;;;;;;;2.07;1.87;;;13.70;99.90;13.00;96836.00;;;;5012961;28;20275;-87
2021/08/03 03:21:11;;;;;;;3.33;1.83;;;13.60;99.90;13.10;96841.00;;;;4999093;28;20210;-87
2021/08/03 03:24:02;;;;;;;2.10;1.90;;;13.60;99.90;13.10;96842.00;;;;4994287;28;20230;-86
2021/08/03 03:26:53;;;;;;;3.90;2.23;;;13.60;99.90;12.70;96836.00;;;;5014758;28;20194;-87
2021/08/03 03:29:44;;;;;;;2.33;1.97;;;13.50;99.90;12.60;96840.00;;;;5014504;28;20230;-86
2021/08/03 03:32:35;;;;;;;3.90;2.07;;;13.40;99.90;12.60;96845.00;;;;5013203;28;20210;-86
2021/08/03 03:35:24;;;;;;;5.07;2.13;;;13.30;99.90;12.70;96843.00;;;;5013259;28;20221;-86
2021/08/03 03:38:14;;;;;;;3.03;2.20;;;13.30;99.90;12.70;96845.00;;;;5014400;28;20738;-86
2021/08/03 03:41:03;;;;;;;2.33;2.13;;;13.30;99.90;12.70;96846.00;;;;5013440;28;20202;-86
2021/08/03 03:43:52;;;;;;;6.87;2.33;;;13.30;99.90;12.80;96841.00;;;;5013778;28;20222;-86
2021/08/03 03:46:55;;;;;;;2.90;2.47;;;13.30;99.90;12.90;96856.00;;;;5017236;28;20204;-86
2021/08/03 03:49:47;;;;;;;3.97;2.90;;;13.30;99.90;12.90;96861.00;;;;5032738;28;20672;-87
2021/08/03 03:52:44;;;;;;;2.23;2.03;;;13.30;99.90;12.80;96858.00;;;;5033101;28;20205;-86
2021/08/03 03:55:51;;;;;;;1.87;1.77;;;13.40;99.90;12.80;96870.00;;;;5014766;28;20580;-86
2021/08/03 03:58:42;;;;;;;2.10;1.80;;;13.40;99.90;12.80;96872.00;;;;5013660;28;20655;-86
2021/08/03 04:01:33;;;;;;;2.17;1.97;;;13.30;99.90;12.90;96874.00;;;;5012906;28;20210;-87
2021/08/03 04:04:25;;;;;;;4.50;1.67;;;13.40;99.90;12.90;96877.00;;;;5012796;28;20229;-86
2021/08/03 04:07:14;;;;;;;2.40;2.20;;;13.40;99.90;12.80;96888.00;;;;5013403;28;20206;-86
2021/08/03 04:10:06;;;;;;;2.10;1.90;;;13.40;99.90;12.80;96882.00;;;;5007317;28;20273;-86
2021/08/03 04:12:57;;;;;;;2.60;2.10;;;13.40;99.90;12.80;96882.00;;;;4991603;28;20601;-86
2021/08/03 04:15:46;;;;;;;3.07;2.07;;;13.40;99.90;12.90;96884.00;;;;5004244;28;20194;-87
2021/08/03 04:18:36;;;;;;;3.07;2.13;;;13.40;99.90;13.00;96876.00;;;;5011701;28;20221;-85
2021/08/03 04:21:27;;;;;;;2.53;2.33;;;13.40;99.90;13.00;96894.00;;;;4991791;28;20225;-86
2021/08/03 04:24:16;;;;;;;2.73;2.27;;;13.40;99.90;13.10;96894.00;;;;4992145;28;20694;-85
2021/08/03 04:27:05;;;;;;;3.83;2.07;;;13.50;99.90;13.10;96890.00;;;;5026715;28;20204;-85
2021/08/03 04:29:54;;;;;;;5.07;3.07;;;13.50;99.90;13.20;96880.00;;;;5031605;28;20205;-85
2021/08/03 04:32:44;;;;;;;6.97;2.37;;;13.60;99.90;13.30;96885.00;;;;5010082;28;20209;-86
2021/08/03 04:35:33;;;;;;;2.83;2.63;;;13.60;99.90;13.40;96879.00;;;;5012106;28;20871;-85
2021/08/03 04:38:24;;;;;;;2.70;2.27;;;13.70;99.90;13.40;96880.00;;;;5014079;28;20322;-85
2021/08/03 04:41:13;;;;;;;2.93;2.63;;;13.70;99.90;13.40;96887.00;;;;5009311;28;20847;-85
2021/08/03 04:44:02;;;;;;;3.13;2.40;;;13.80;99.90;13.40;96893.00;;;;4993202;28;20219;-89
2021/08/03 04:46:51;;;;;;;1.73;1.63;;;13.80;99.90;13.50;96895.00;;;;5000250;28;20197;-86
2021/08/03 04:49:39;;;;;;;2.10;1.90;;;13.90;99.90;13.60;96888.00;;;;5030900;28;21383;-87
2021/08/03 04:52:28;;;;;;;1.90;1.80;;;13.90;99.90;13.70;96894.00;;;;5003273;28;20198;-88
2021/08/03 04:55:19;;;;;;;2.57;2.13;;;14.00;99.90;13.80;96892.00;;;;5028663;28;20224;-86
2021/08/03 04:58:08;;;;;;;2.00;1.50;;;14.10;99.90;13.70;96895.00;;;;5033305;28;20201;-87
2021/08/03 05:00:57;;;;;;;2.30;2.07;;;14.10;99.90;13.70;96909.00;;;;5017509;28;20198;-88
2021/08/03 05:03:46;;;;;;;2.30;1.40;;;14.10;99.90;13.60;96887.00;;;;5021829;28;20229;-87
2021/08/03 05:06:36;;;;;;;2.63;1.70;;;14.10;99.90;13.70;96885.00;;;;5034571;28;20197;-87
2021/08/03 05:09:25;;;;;;;1.60;1.50;;;14.10;99.90;13.70;96877.00;;;;5032964;28;20201;-87
2021/08/03 05:12:15;;;;;;;1.50;1.40;;;14.20;99.90;13.60;96871.00;;;;5031150;28;20217;-86
2021/08/03 05:15:05;;;;;;;2.73;1.70;;;14.20;99.90;13.70;96867.00;;;;5031893;28;20602;-88
2021/08/03 05:17:54;;;;;;;2.30;1.90;;;14.20;99.90;13.80;96876.00;;;;5033128;28;20197;-88
2021/08/03 05:20:44;;;;;;;2.70;1.60;;;14.20;99.90;13.90;96873.00;;;;5032534;28;20205;-87
2021/08/03 05:23:33;;;;;;;2.20;2.10;;;14.30;99.90;14.00;96871.00;;;;5032149;28;20223;-87
2021/08/03 05:26:22;;;;;;;1.90;1.80;;;14.30;99.90;14.00;96881.00;;;;5031066;28;20203;-88
2021/08/03 05:29:12;;;;;;;1.80;1.50;;;14.40;99.90;14.10;96878.00;;;;5033400;28;20197;-87
2021/08/03 05:32:01;;;;;;;2.87;1.60;;;14.50;99.90;14.40;96879.00;;;;5035556;28;20224;-87
2021/08/03 05:34:50;;;;;;;2.13;1.93;;;14.60;99.90;14.40;96874.00;;;;5033355;28;20213;-88
2021/08/03 05:37:39;;;;;;;2.13;1.70;;;14.60;99.90;14.50;96869.00;;;;5033551;28;20208;-87
2021/08/03 05:40:28;;;;;;;1.53;1.43;;;14.80;99.90;14.40;96876.00;;;;5031842;28;20680;-87
2021/08/03 05:43:17;;;;;;;1.80;1.70;;;14.80;99.90;14.50;96872.00;;;;5031431;28;20213;-87
2021/08/03 05:46:08;;;;;;;1.70;1.60;;;14.90;99.90;14.60;96874.00;;;;5030453;28;20212;-87
2021/08/03 05:48:57;;;;;;;1.87;1.67;;;15.00;99.90;14.70;96867.00;;;;4991686;28;20773;-86
2021/08/03 05:51:46;;;;;;;3.97;1.87;;;15.00;99.90;14.90;96864.00;;;;4991512;28;20222;-86
2021/08/03 05:54:35;;;;;;;10.40;2.67;;;15.20;99.90;15.00;96867.00;;;;5008522;28;20217;-86
2021/08/03 05:57:24;;;;;;;3.97;2.07;;;15.20;99.90;15.30;96873.00;;;;5011847;28;20206;-86
2021/08/03 06:00:16;;;;;;;2.20;2.00;;;15.40;99.90;15.50;96877.00;;;;5009223;28;20573;-86
2021/08/03 06:03:08;;;;;;;1.83;1.73;;;15.50;99.90;15.50;96876.00;;;;5008195;28;20260;-86
2021/08/03 06:06:00;;;;;;;3.10;2.53;;;15.70;99.90;15.60;96874.00;;;;5004733;28;20206;-86
2021/08/03 06:08:51;;;;;;;2.90;2.60;;;15.80;99.90;15.60;96881.00;;;;5006700;28;20203;-86
2021/08/03 06:11:48;;;;;;;2.97;2.63;;;15.90;99.90;15.80;96885.00;;;;5006049;28;20233;-85
2021/08/03 06:14:39;;;;;;;3.40;3.10;;;16.00;99.90;15.90;96882.00;;;;5004237;28;20234;-86
2021/08/03 06:17:36;;;;;;;3.63;2.67;;;16.10;99.90;16.00;96885.00;;;;5003590;28;20237;-86
2021/08/03 06:20:27;;;;;;;3.10;2.80;;;16.20;99.90;16.00;96894.00;;;;5004593;28;20662;-85
2021/08/03 06:23:18;;;;;;;2.60;2.40;;;16.30;99.90;16.00;96898.00;;;;5012957;28;20638;-85
2021/08/03 06:26:07;;;;;;;2.60;2.40;;;16.40;99.90;16.10;96897.00;;;;5019325;28;20207;-85
2021/08/03 06:28:56;;;;;;;5.17;2.80;;;16.40;99.90;16.30;96897.00;;;;5014819;28;20206;-84
2021/08/03 06:31:46;;;;;;;3.60;3.27;;;16.50;99.90;16.50;96894.00;;;;5016253;28;20218;-86
2021/08/03 06:34:38;;;;;;;3.47;3.17;;;16.60;99.90;16.60;96896.00;;;;5015391;28;20218;-86
2021/08/03 06:37:28;;;;;;;5.23;2.77;;;16.70;99.90;16.90;96897.00;;;;5014919;28;20695;-87
2021/08/03 06:40:17;;;;;;;3.03;2.70;;;16.90;99.90;17.20;96887.00;;;;5014052;28;20715;-87
2021/08/03 06:43:15;;;;;;;4.77;3.40;;;17.10;99.90;17.30;96886.00;;;;5010666;28;20242;-86
2021/08/03 06:46:09;;;;;;;3.50;3.20;;;17.30;99.90;17.40;96886.00;;;;5013533;28;20213;-86
2021/08/03 06:49:04;;;;;;;3.13;2.73;;;17.40;99.90;17.60;96887.00;;;;5020819;28;20276;-87
2021/08/03 06:51:56;;;;;;;7.17;4.70;;;17.60;99.90;17.80;96878.00;;;;5005419;28;20223;-87
2021/08/03 06:54:52;;;;;;;5.77;2.87;;;17.80;99.90;17.80;96878.00;;;;5023070;28;20225;-87
2021/08/03 06:57:50;;;;;;;3.57;2.90;;;17.90;99.90;18.10;96884.00;;;;5002516;28;20237;-87
2021/08/03 07:00:43;;;;;;;6.40;4.97;;;18.00;99.90;18.40;96870.00;;;;4997395;28;20224;-87
2021/08/03 07:03:38;;;;;;;5.60;3.63;;;18.20;99.90;18.70;96865.00;;;;5003407;28;20977;-86
2021/08/03 07:06:30;;;;;;;3.53;2.20;;;18.50;99.90;19.00;96881.00;;;;5012070;28;20212;-87
2021/08/03 07:09:19;;;;;;;3.03;2.73;;;18.70;99.90;19.20;96877.00;;;;5007191;28;20195;-85
2021/08/03 07:12:11;;;;;;;2.87;2.67;;;19.00;99.90;19.50;96873.00;;;;5006066;28;20766;-83
2021/08/03 07:15:00;;;;;;;4.03;2.47;;;19.20;99.90;19.60;96875.00;;;;5006465;28;20227;-86
2021/08/03 07:17:49;;;;;;;3.60;3.27;;;19.40;99.90;19.80;96870.00;;;;5004616;28;20249;-86
2021/08/03 07:20:42;;;;;;;3.33;2.20;;;19.60;99.90;19.80;96859.00;;;;5003931;28;20205;-87
2021/08/03 07:23:31;;;;;;;3.10;2.80;;;19.70;99.90;19.90;96863.00;;;;5005517;28;20222;-86
2021/08/03 07:26:20;;;;;;;3.17;2.87;;;19.90;99.90;20.20;96855.00;;;;5003860;28;20201;-87
2021/08/03 07:29:11;;;;;;;2.73;2.50;;;20.00;99.90;20.30;96860.00;;;;5002805;28;20201;-85
2021/08/03 07:32:00;;;;;;;3.07;2.13;;;20.20;99.90;20.50;96864.00;;;;5004427;28;20726;-86
2021/08/03 07:34:49;;;;;;;2.97;2.77;;;20.30;99.90;20.60;96853.00;;;;5002377;28;20261;-87
2021/08/03 07:37:38;;;;;;;2.03;1.80;;;20.50;99.90;20.60;96863.00;;;;5004720;28;20655;-86
2021/08/03 07:40:27;;;;;;;2.50;2.30;;;20.60;99.90;20.90;96860.00;;;;5004071;28;20206;-86
2021/08/03 07:43:16;;;;;;;2.17;1.83;;;20.80;99.90;21.00;96866.00;;;;4997788;28;20203;-87
2021/08/03 07:46:09;;;;;;;1.77;1.67;;;20.90;99.90;21.00;96853.00;;;;5013721;28;20564;-85
2021/08/03 07:48:59;;;;;;;4.60;2.03;;;20.90;99.90;20.70;96850.00;;;;5027337;28;20209;-85
2021/08/03 07:51:52;;;;;;;2.77;2.10;;;21.00;99.90;20.60;96851.00;;;;5032016;28;20225;-87
2021/08/03 07:54:40;;;;;;;1.83;1.73;;;21.10;99.90;20.90;96851.00;;;;5016489;28;20236;-87
2021/08/03 07:57:30;;;;;;;2.37;2.17;;;21.00;99.90;20.90;96854.00;;;;5035001;28;20205;-86
2021/08/03 08:00:19;;;;;;;5.13;1.90;;;21.10;99.90;21.10;96854.00;;;;5034813;28;20201;-86
2021/08/03 08:03:09;;;;;;;2.40;2.20;;;21.10;99.90;21.00;96854.00;;;;5033525;28;20523;-86
2021/08/03 08:05:58;;;;;;;1.97;1.70;;;21.20;99.90;20.50;96843.00;;;;5033029;28;20247;-85
2021/08/03 08:08:47;;;;;;;5.20;2.00;;;21.10;99.90;21.10;96852.00;;;;5032516;28;20202;-86
2021/08/03 08:11:36;;;;;;;2.20;2.00;;;21.20;99.90;21.40;96854.00;;;;5032299;28;20197;-87
2021/08/03 08:14:25;;;;;;;2.97;2.20;;;21.30;99.90;21.30;96850.00;;;;5014796;28;20228;-86
2021/08/03 08:17:14;;;;;;;5.03;2.17;;;21.30;99.90;21.60;96849.00;;;;4993701;28;20202;-86
2021/08/03 08:20:12;;;;;;;2.17;1.93;;;21.50;99.90;21.80;96861.00;;;;5006075;28;20206;-85
2021/08/03 08:23:01;;;;;;;4.60;2.40;;;21.70;99.90;22.00;96863.00;;;;5004750;28;20199;-85
2021/08/03 08:25:50;;;;;;;1.70;1.60;;;21.90;99.90;21.90;96889.00;;;;5012062;28;20210;-86
2021/08/03 08:28:39;;;;;;;1.60;1.37;;;21.90;99.90;21.90;96870.00;;;;5002092;28;20198;-84
2021/08/03 08:31:29;;;;;;;1.97;1.77;;;22.10;99.90;22.20;96862.00;;;;5006664;28;20249;-85
2021/08/03 08:34:18;;;;;;;2.43;1.33;;;22.10;99.90;22.30;96868.00;;;;5007015;28;20219;-85
2021/08/03 08:37:09;;;;;;;2.90;1.73;;;22.20;99.90;22.30;96869.00;;;;5009669;28;20191;-87
2021/08/03 08:39:59;;;;;;;1.57;1.47;;;22.30;99.90;22.70;96888.00;;;;5004029;28;20845;-85
2021/08/03 08:42:48;;;;;;;1.60;1.50;;;22.50;99.90;22.70;96875.00;;;;5004864;28;20214;-84
2021/08/03 08:45:38;;;;;;;1.93;1.37;;;22.60;99.90;23.00;96863.00;;;;5010147;28;20611;-86
2021/08/03 08:48:27;;;;;;;1.57;1.47;;;22.80;99.90;23.00;96862.00;;;;5010045;28;20257;-86
2021/08/03 08:51:17;;;;;;;2.07;1.63;;;22.90;99.90;23.50;96860.00;;;;5015431;28;20194;-85
2021/08/03 08:54:07;;;;;;;4.53;1.70;;;23.10;99.90;23.30;96861.00;;;;5020460;28;20232;-84
2021/08/03 08:56:56;;;;;;;4.93;1.67;;;23.40;99.90;23.40;96859.00;;;;5030839;28;20232;-85
2021/08/03 08:59:45;;;;;;;2.97;1.90;;;23.40;99.90;22.80;96865.00;;;;5032099;28;20205;-84
2021/08/03 09:02:40;;;;;;;1.80;1.70;;;23.40;99.90;23.20;96869.00;;;;5031249;28;20260;-85
2021/08/03 09:05:33;;;;;;;1.90;1.80;;;23.40;99.90;23.70;96866.00;;;;5032103;28;20222;-87
2021/08/03 09:08:24;;;;;;;2.40;1.80;;;23.60;99.90;24.20;96858.00;;;;5032437;28;20225;-85
2021/08/03 09:11:17;;;;;;;2.13;1.63;;;23.80;99.90;24.80;96849.00;;;;5032205;28;20683;-85
2021/08/03 09:14:06;;;;;;;1.77;1.67;;;24.10;99.90;24.70;96855.00;;;;4994356;28;20222;-85
2021/08/03 09:16:55;;;;;;;2.47;1.30;;;24.30;98.20;24.60;96863.00;;;;4993075;28;20216;-84
2021/08/03 09:19:44;;;;;;;1.67;1.57;;;24.40;97.70;24.50;96869.00;;;;4993851;28;20866;-85
2021/08/03 09:22:34;;;;;;;4.23;1.73;;;24.40;99.50;24.00;96871.00;;;;4993278;28;20224;-85
2021/08/03 09:25:23;;;;;;;2.57;1.53;;;24.40;98.90;24.40;96843.00;;;;4996316;28;20298;-85
2021/08/03 09:28:14;;;;;;;2.00;1.70;;;24.40;99.50;25.10;96850.00;;;;4995261;28;20219;-84
2021/08/03 09:31:05;;;;;;;1.73;1.63;;;24.60;99.80;25.40;96839.00;;;;4994544;28;20205;-84
2021/08/03 09:33:54;;;;;;;1.70;1.60;;;24.90;99.90;25.80;96832.00;;;;4994139;28;20244;-84
2021/08/03 09:36:49;;;;;;;2.13;1.83;;;25.10;99.50;25.90;96829.00;;;;4995948;28;20212;-84
2021/08/03 09:39:43;;;;;;;1.80;1.60;;;25.40;98.60;26.00;96830.00;;;;4994758;28;20415;-83
2021/08/03 09:42:32;;;;;;;2.20;2.00;;;25.60;97.20;26.30;96828.00;;;;4994783;28;20224;-85
2021/08/03 09:45:23;;;;;;;5.50;1.57;;;25.90;96.10;26.30;96820.00;;;;4997483;28;20301;-83
2021/08/03 09:48:14;;;;;;;1.70;1.60;;;26.00;94.60;25.90;96802.00;;;;5022048;28;20257;-85
2021/08/03 09:51:07;;;;;;;3.57;1.60;;;26.10;90.40;26.10;96815.00;;;;5013630;28;20222;-86
2021/08/03 09:53:56;;;;;;;2.03;1.53;;;26.00;91.00;26.30;96808.00;;;;5018875;28;20225;-84
2021/08/03 09:56:45;;;;;;;1.93;1.63;;;26.20;89.80;26.50;96815.00;;;;4999382;28;20227;-85
2021/08/03 09:59:37;;;;;;;1.30;1.20;;;26.30;87.70;26.40;96821.00;;;;4998103;28;20212;-84
2021/08/03 10:02:29;;;;;;;1.97;1.63;;;26.30;87.20;26.30;96798.00;;;;4996325;28;20209;-84
2021/08/03 10:05:22;;;;;;;2.00;1.73;;;26.30;84.40;26.40;96792.00;;;;5002095;28;20227;-85
2021/08/03 10:08:12;;;;;;;1.63;1.23;;;26.40;84.00;26.80;96782.00;;;;5034386;28;20296;-85
2021/08/03 10:11:01;;;;;;;2.00;1.40;;;26.40;84.40;26.70;96783.00;;;;5035020;28;20218;-85
2021/08/03 10:13:52;;;;;;;1.77;1.40;;;26.60;83.80;26.20;96815.00;;;;4991877;28;20239;-85
2021/08/03 10:16:41;;;;;;;2.37;1.83;;;26.50;78.60;25.00;96812.00;;;;4993688;28;20352;-85
2021/08/03 10:19:36;;;;;;;1.77;1.57;;;26.10;79.70;25.90;96764.00;;;;4993616;28;20259;-85
2021/08/03 10:22:30;;;;;;;1.47;1.37;;;25.90;81.70;25.40;96756.00;;;;4995269;28;20207;-84
2021/08/03 10:25:20;;;;;;;1.40;1.30;;;25.80;80.00;26.40;96799.00;;;;4992507;28;20235;-83
2021/08/03 10:28:22;;;;;;;2.50;1.00;;;26.00;80.30;25.80;96803.00;;;;4999242;28;20216;-85
2021/08/03 10:31:39;;;;;;;1.70;1.20;;;26.00;84.00;25.40;96746.00;;;;4996009;28;20256;-85
2021/08/03 10:35:04;;;;;;;1.47;1.37;;;25.80;83.30;25.30;96790.00;;;;4990803;28;20638;-85
2021/08/03 10:38:12;;;;;;;1.37;1.27;;;25.80;82.70;25.50;96733.00;;;;4991704;28;20205;-86
2021/08/03 10:41:07;;;;;;;2.30;1.10;;;25.80;82.20;25.90;96723.00;;;;5009451;28;20209;-85
2021/08/03 10:43:56;;;;;;;1.20;1.00;;;25.90;80.60;25.20;96770.00;;;;5009604;28;20657;-86
2021/08/03 10:46:45;;;;;;;1.20;1.10;;;25.70;82.70;24.40;96766.00;;;;5018290;28;20704;-84
2021/08/03 10:49:56;;;;;;;1.60;1.50;;;25.40;81.30;23.90;96699.00;;;;5007676;28;20205;-82
2021/08/03 10:52:58;;;;;;;2.57;1.00;;;24.90;78.30;25.60;96697.00;;;;4992800;28;20669;-84
2021/08/03 10:55:59;;;;;;;2.07;1.30;;;25.10;79.60;26.60;96695.00;;;;5016669;28;20741;-85
2021/08/03 10:58:48;;;;;;;2.70;1.63;;;25.40;80.90;27.10;96746.00;;;;5011655;28;20677;-85
2021/08/03 11:01:45;;;;;;;1.30;1.20;;;25.90;83.50;25.50;96690.00;;;;5013513;28;20205;-86
2021/08/03 11:04:57;;;;;;;1.30;1.20;;;25.80;79.90;26.60;96720.00;;;;5011614;28;20241;-83
2021/08/03 11:07:46;;;;;;;1.43;1.17;;;26.00;81.30;26.50;96668.00;;;;4999187;28;20209;-83
2021/08/03 11:10:36;;;;;;;2.53;1.60;;;26.30;80.00;27.70;96668.00;;;;5014136;28;20221;-84
2021/08/03 11:13:41;;;;;;;2.23;1.20;;;26.70;78.90;28.30;96663.00;;;;5010180;28;20231;-86
2021/08/03 11:16:48;;;;;;;1.43;1.20;;;27.10;79.00;28.90;96671.00;;;;5014030;28;20204;-85
2021/08/03 11:19:37;;;;;;;1.43;1.27;;;27.70;78.60;27.30;96666.00;;;;5001751;28;20201;-84
2021/08/03 11:22:52;;;;;;;0.70;0.70;;;28.00;73.20;28.90;96658.00;;;;5016779;28;20586;-85
2021/08/03 11:25:45;;;;;;;0.90;0.90;;;28.10;75.10;29.10;96655.00;;;;5003349;28;20207;-84
2021/08/03 11:28:34;;;;;;;1.55;1.10;;;28.50;73.00;28.40;96699.00;;;;5013393;28;20206;-85
2021/08/03 11:31:23;;;;;;;0.77;0.77;;;28.60;72.10;28.40;96642.00;;;;5012983;28;20228;-85
2021/08/03 11:34:14;;;;;;;1.33;1.20;;;28.50;71.50;29.50;96644.00;;;;5000636;28;20274;-85
2021/08/03 11:37:16;;;;;;;1.30;1.20;;;28.70;72.10;29.60;96637.00;;;;5011093;28;20199;-85
2021/08/03 11:40:08;;;;;;;2.30;1.13;;;29.00;69.80;29.70;96635.00;;;;4998838;28;20201;-85
2021/08/03 11:43:00;;;;;;;1.33;1.17;;;29.10;67.60;29.70;96634.00;;;;5012366;28;20207;-87
2021/08/03 11:45:49;;;;;;;1.27;1.13;;;29.20;68.90;30.20;96624.00;;;;5011867;28;21020;-86
2021/08/03 11:48:38;;;;;;;1.38;1.23;;;29.40;69.80;30.40;96627.00;;;;5023941;28;20189;-86
2021/08/03 11:51:36;;;;;;;1.48;1.17;;;29.60;68.70;30.80;96625.00;;;;5021934;28;20202;-86
2021/08/03 11:54:25;;;;;;;1.25;1.13;;;29.90;68.40;30.60;96614.00;;;;5017351;28;20239;-85
2021/08/03 11:57:36;;;;;;;1.50;1.40;;;30.10;62.10;31.10;96617.00;;;;5012319;28;20225;-84
2021/08/03 12:00:27;;;;;;;1.10;1.00;;;30.30;64.20;31.20;96621.00;;;;5007027;28;20560;-86
2021/08/03 12:03:28;;;;;;;3.13;1.08;;;30.60;64.60;30.70;96594.00;;;;5010631;28;20213;-85
2021/08/03 12:06:19;;;;;;;1.20;1.10;;;30.60;63.60;29.50;96629.00;;;;5011773;28;20259;-84
2021/08/03 12:09:13;;;;;;;1.65;1.20;;;30.40;60.90;28.80;96589.00;;;;5004179;28;20209;-85
2021/08/03 12:12:04;;;;;;;1.42;1.10;;;29.90;59.50;29.50;96594.00;;;;5008324;28;20201;-86
2021/08/03 12:15:07;;;;;;;1.63;1.00;;;29.60;62.10;28.30;96631.00;;;;5006688;28;20861;-86
2021/08/03 12:18:15;;;;;;;1.27;1.23;;;29.40;62.30;29.50;96604.00;;;;5007133;28;20227;-85
2021/08/03 12:21:05;;;;;;;1.23;0.90;;;29.30;60.60;28.30;96660.00;;;;4991623;28;20235;-86
2021/08/03 12:24:05;;;;;;;1.60;1.00;;;29.10;59.30;28.40;96584.00;;;;4992674;28;20326;-84
2021/08/03 12:27:11;;;;;;;1.17;1.00;;;28.70;62.10;27.60;96663.00;;;;4991937;28;20567;-85
2021/08/03 12:30:00;;;;;;;1.17;1.10;;;28.30;62.50;27.50;96577.00;;;;4993689;28;20207;-85
2021/08/03 12:32:49;;;;;;;1.70;0.85;;;28.10;65.10;29.80;96584.00;;;;5009904;28;20584;-84
2021/08/03 12:35:41;;;;;;;1.45;1.10;;;28.40;65.00;30.80;96643.00;;;;5032880;28;20234;-84
2021/08/03 12:38:30;;;;;;;2.42;1.25;;;29.00;67.40;28.80;96643.00;;;;5032825;28;20201;-84
2021/08/03 12:41:22;;;;;;;1.05;0.93;;;28.90;64.50;30.00;96574.00;;;;5030945;28;20216;-85
2021/08/03 12:44:28;;;;;;;0.80;0.80;;;29.20;64.10;30.90;96577.00;;;;5033797;28;20223;-84
2021/08/03 12:47:19;;;;;;;1.30;1.00;;;29.10;60.90;29.80;96651.00;;;;5033506;28;20193;-85